sensor_id;sensor_type;location;lat;lon;timestamp;pressure;altitude;pressure_sealevel;temperature;humidity
46718;BME280;32448;44.960;-0.698;2023-09-08T00:00:12;101290.28;;;21.19;100.00
46718;BME280;32448;44.960;-0.698;2023-09-08T00:02:49;101285.88;;;21.15;100.00
46718;BME280;32448;44.960;-0.698;2023-09-08T00:05:22;101284.19;;;21.11;100.00
46718;BME280;32448;44.960;-0.698;2023-09-08T00:07:50;101275.31;;;21.11;100.00
46718;BME280;32448;44.960;-0.698;2023-09-08T00:10:18;101279.75;;;21.12;100.00
46718;BME280;32448;44.960;-0.698;2023-09-08T00:12:47;101278.94;;;21.08;100.00
46718;BME280;32448;44.960;-0.698;2023-09-08T00:15:18;101274.53;;;21.07;100.00
46718;BME280;32448;44.960;-0.698;2023-09-08T00:17:46;101276.34;;;21.03;100.00
46718;BME280;32448;44.960;-0.698;2023-09-08T00:20:15;101287.03;;;21.00;100.00
46718;BME280;32448;44.960;-0.698;2023-09-08T00:22:44;101288.97;;;20.92;100.00
46718;BME280;32448;44.960;-0.698;2023-09-08T00:25:23;101287.16;;;20.94;100.00
46718;BME280;32448;44.960;-0.698;2023-09-08T00:27:50;101289.84;;;20.93;100.00
46718;BME280;32448;44.960;-0.698;2023-09-08T00:30:18;101281.94;;;20.88;100.00
46718;BME280;32448;44.960;-0.698;2023-09-08T00:32:47;101286.31;;;20.92;100.00
46718;BME280;32448;44.960;-0.698;2023-09-08T00:35:22;101282.75;;;20.93;100.00
46718;BME280;32448;44.960;-0.698;2023-09-08T00:37:52;101287.38;;;20.82;100.00
46718;BME280;32448;44.960;-0.698;2023-09-08T00:40:21;101282.94;;;20.83;100.00
46718;BME280;32448;44.960;-0.698;2023-09-08T00:42:49;101285.59;;;20.83;100.00
46718;BME280;32448;44.960;-0.698;2023-09-08T00:45:18;101287.34;;;20.84;100.00
46718;BME280;32448;44.960;-0.698;2023-09-08T00:47:48;101285.66;;;20.78;100.00
46718;BME280;32448;44.960;-0.698;2023-09-08T00:50:16;101281.28;;;20.76;100.00
46718;BME280;32448;44.960;-0.698;2023-09-08T00:52:43;101282.22;;;20.71;100.00
46718;BME280;32448;44.960;-0.698;2023-09-08T00:55:11;101283.19;;;20.66;100.00
46718;BME280;32448;44.960;-0.698;2023-09-08T00:57:42;101287.66;;;20.65;100.00
46718;BME280;32448;44.960;-0.698;2023-09-08T01:00:14;101289.38;;;20.66;100.00
46718;BME280;32448;44.960;-0.698;2023-09-08T01:02:43;101293.88;;;20.63;100.00
46718;BME280;32448;44.960;-0.698;2023-09-08T01:05:14;101290.41;;;20.59;100.00
46718;BME280;32448;44.960;-0.698;2023-09-08T01:07:42;101290.38;;;20.61;100.00
46718;BME280;32448;44.960;-0.698;2023-09-08T01:10:10;101288.56;;;20.63;100.00
46718;BME280;32448;44.960;-0.698;2023-09-08T01:12:39;101284.16;;;20.63;100.00
46718;BME280;32448;44.960;-0.698;2023-09-08T01:15:07;101281.59;;;20.56;100.00
46718;BME280;32448;44.960;-0.698;2023-09-08T01:17:35;101284.34;;;20.51;100.00
46718;BME280;32448;44.960;-0.698;2023-09-08T01:20:41;101277.31;;;20.46;100.00
46718;BME280;32448;44.960;-0.698;2023-09-08T01:23:11;101283.63;;;20.40;100.00
46718;BME280;32448;44.960;-0.698;2023-09-08T01:25:49;101274.81;;;20.37;100.00
46718;BME280;32448;44.960;-0.698;2023-09-08T01:28:19;101275.72;;;20.32;100.00
46718;BME280;32448;44.960;-0.698;2023-09-08T01:30:50;101278.34;;;20.34;100.00
46718;BME280;32448;44.960;-0.698;2023-09-08T01:33:18;101278.44;;;20.29;100.00
46718;BME280;32448;44.960;-0.698;2023-09-08T01:35:48;101270.41;;;20.32;100.00
46718;BME280;32448;44.960;-0.698;2023-09-08T01:38:16;101275.78;;;20.31;100.00
46718;BME280;32448;44.960;-0.698;2023-09-08T01:40:45;101274.03;;;20.27;100.00
46718;BME280;32448;44.960;-0.698;2023-09-08T01:43:13;101281.09;;;20.31;100.00
46718;BME280;32448;44.960;-0.698;2023-09-08T01:45:44;101281.97;;;20.30;100.00
46718;BME280;32448;44.960;-0.698;2023-09-08T01:48:13;101288.16;;;20.30;100.00
46718;BME280;32448;44.960;-0.698;2023-09-08T01:50:41;101290.03;;;20.22;100.00
46718;BME280;32448;44.960;-0.698;2023-09-08T01:53:10;101288.41;;;20.14;100.00
46718;BME280;32448;44.960;-0.698;2023-09-08T01:55:38;101287.59;;;20.09;100.00
46718;BME280;32448;44.960;-0.698;2023-09-08T01:58:06;101280.38;;;20.18;100.00
46718;BME280;32448;44.960;-0.698;2023-09-08T02:00:33;101277.63;;;20.23;100.00
46718;BME280;32448;44.960;-0.698;2023-09-08T02:03:05;101278.59;;;20.20;100.00
46718;BME280;32448;44.960;-0.698;2023-09-08T02:05:33;101280.38;;;20.20;100.00
46718;BME280;32448;44.960;-0.698;2023-09-08T02:08:05;101282.16;;;20.18;100.00
46718;BME280;32448;44.960;-0.698;2023-09-08T02:10:39;101271.56;;;20.15;100.00
46718;BME280;32448;44.960;-0.698;2023-09-08T02:13:10;101283.06;;;20.15;100.00
46718;BME280;32448;44.960;-0.698;2023-09-08T02:15:39;101288.50;;;20.06;100.00
46718;BME280;32448;44.960;-0.698;2023-09-08T02:18:09;101285.91;;;20.02;100.00
46718;BME280;32448;44.960;-0.698;2023-09-08T02:20:39;101281.41;;;20.10;100.00
46718;BME280;32448;44.960;-0.698;2023-09-08T02:23:09;101281.41;;;20.08;100.00
46718;BME280;32448;44.960;-0.698;2023-09-08T02:25:37;101288.47;;;20.09;100.00
46718;BME280;32448;44.960;-0.698;2023-09-08T02:28:09;101285.88;;;20.03;100.00
46718;BME280;32448;44.960;-0.698;2023-09-08T02:30:38;101277.97;;;20.00;100.00
46718;BME280;32448;44.960;-0.698;2023-09-08T02:33:06;101278.81;;;20.04;100.00
46718;BME280;32448;44.960;-0.698;2023-09-08T02:35:36;101280.75;;;19.91;100.00
46718;BME280;32448;44.960;-0.698;2023-09-08T02:38:04;101279.88;;;19.89;100.00
46718;BME280;32448;44.960;-0.698;2023-09-08T02:40:32;101273.66;;;19.93;100.00
46718;BME280;32448;44.960;-0.698;2023-09-08T02:43:05;101223.75;;;19.55;100.00
46718;BME280;32448;44.960;-0.698;2023-09-08T02:45:34;101272.03;;;19.81;100.00
46718;BME280;32448;44.960;-0.698;2023-09-08T02:48:04;101276.44;;;19.82;100.00
46718;BME280;32448;44.960;-0.698;2023-09-08T02:50:33;101276.47;;;19.81;100.00
46718;BME280;32448;44.960;-0.698;2023-09-08T02:53:00;101284.50;;;19.76;100.00
46718;BME280;32448;44.960;-0.698;2023-09-08T02:55:30;101279.19;;;19.76;100.00
46718;BME280;32448;44.960;-0.698;2023-09-08T02:57:57;101281.78;;;19.79;100.00
46718;BME280;32448;44.960;-0.698;2023-09-08T03:00:26;101282.66;;;19.80;100.00
46718;BME280;32448;44.960;-0.698;2023-09-08T03:02:54;101282.72;;;19.77;100.00
46718;BME280;32448;44.960;-0.698;2023-09-08T03:05:24;101285.41;;;19.74;100.00
46718;BME280;32448;44.960;-0.698;2023-09-08T03:07:54;101285.41;;;19.74;100.00
46718;BME280;32448;44.960;-0.698;2023-09-08T03:10:22;101285.56;;;19.58;100.00
46718;BME280;32448;44.960;-0.698;2023-09-08T03:12:50;101283.78;;;19.60;100.00
46718;BME280;32448;44.960;-0.698;2023-09-08T03:15:22;101282.81;;;19.68;100.00
46718;BME280;32448;44.960;-0.698;2023-09-08T03:17:50;101273.06;;;19.68;100.00
46718;BME280;32448;44.960;-0.698;2023-09-08T03:20:18;101280.19;;;19.66;100.00
46718;BME280;32448;44.960;-0.698;2023-09-08T03:22:45;101279.34;;;19.62;100.00
46718;BME280;32448;44.960;-0.698;2023-09-08T03:25:14;101282.03;;;19.61;100.00
46718;BME280;32448;44.960;-0.698;2023-09-08T03:27:45;101287.34;;;19.58;100.00
46718;BME280;32448;44.960;-0.698;2023-09-08T03:30:14;101284.75;;;19.55;100.00
46718;BME280;32448;44.960;-0.698;2023-09-08T03:32:43;101288.25;;;19.57;100.00
46718;BME280;32448;44.960;-0.698;2023-09-08T03:35:14;101281.28;;;19.48;100.00
46718;BME280;32448;44.960;-0.698;2023-09-08T03:37:43;101282.16;;;19.46;100.00
46718;BME280;32448;44.960;-0.698;2023-09-08T03:40:11;101277.75;;;19.49;100.00
46718;BME280;32448;44.960;-0.698;2023-09-08T03:42:38;101275.09;;;19.49;100.00
46718;BME280;32448;44.960;-0.698;2023-09-08T03:45:13;101282.16;;;19.49;100.00
46718;BME280;32448;44.960;-0.698;2023-09-08T03:47:40;101271.56;;;19.44;100.00
46718;BME280;32448;44.960;-0.698;2023-09-08T03:50:09;101268.91;;;19.44;100.00
46718;BME280;32448;44.960;-0.698;2023-09-08T03:52:37;101268.00;;;19.45;100.00
46718;BME280;32448;44.960;-0.698;2023-09-08T03:55:06;101268.94;;;19.43;100.00
46718;BME280;32448;44.960;-0.698;2023-09-08T03:57:34;101270.75;;;19.41;100.00
46718;BME280;32448;44.960;-0.698;2023-09-08T04:00:02;101269.00;;;19.37;100.00
46718;BME280;32448;44.960;-0.698;2023-09-08T04:02:39;101259.31;;;19.34;100.00
46718;BME280;32448;44.960;-0.698;2023-09-08T04:05:07;101271.72;;;19.32;100.00
46718;BME280;32448;44.960;-0.698;2023-09-08T04:07:37;101264.66;;;19.31;100.00
46718;BME280;32448;44.960;-0.698;2023-09-08T04:10:06;101269.97;;;19.30;100.00
46718;BME280;32448;44.960;-0.698;2023-09-08T04:12:36;101271.78;;;19.26;100.00
46718;BME280;32448;44.960;-0.698;2023-09-08T04:15:08;101272.66;;;19.25;100.00
46718;BME280;32448;44.960;-0.698;2023-09-08T04:17:40;101272.66;;;19.25;100.00
46718;BME280;32448;44.960;-0.698;2023-09-08T04:20:09;101277.97;;;19.23;100.00
46718;BME280;32448;44.960;-0.698;2023-09-08T04:22:38;101280.63;;;19.22;100.00
46718;BME280;32448;44.960;-0.698;2023-09-08T04:25:07;101280.69;;;19.20;100.00
46718;BME280;32448;44.960;-0.698;2023-09-08T04:27:35;101283.34;;;19.17;100.00
46718;BME280;32448;44.960;-0.698;2023-09-08T04:30:04;101278.97;;;19.12;100.00
46718;BME280;32448;44.960;-0.698;2023-09-08T04:32:38;101282.50;;;19.12;100.00
46718;BME280;32448;44.960;-0.698;2023-09-08T04:35:08;101282.59;;;19.03;100.00
46718;BME280;32448;44.960;-0.698;2023-09-08T04:37:37;101283.56;;;18.99;100.00
46718;BME280;32448;44.960;-0.698;2023-09-08T04:40:06;101287.13;;;18.92;100.00
46718;BME280;32448;44.960;-0.698;2023-09-08T04:42:36;101280.06;;;18.89;100.00
46718;BME280;32448;44.960;-0.698;2023-09-08T04:45:07;101277.41;;;18.91;100.00
46718;BME280;32448;44.960;-0.698;2023-09-08T04:47:40;101284.47;;;18.90;100.00
46718;BME280;32448;44.960;-0.698;2023-09-08T04:50:09;101275.72;;;18.87;100.00
46718;BME280;32448;44.960;-0.698;2023-09-08T04:52:42;101274.84;;;18.82;100.00
46718;BME280;32448;44.960;-0.698;2023-09-08T04:55:13;101275.72;;;18.84;100.00
46718;BME280;32448;44.960;-0.698;2023-09-08T04:57:42;101280.22;;;18.77;100.00
46718;BME280;32448;44.960;-0.698;2023-09-08T05:03:16;101292.56;;;18.77;100.00
46718;BME280;32448;44.960;-0.698;2023-09-08T05:05:49;101289.09;;;18.70;100.00
46718;BME280;32448;44.960;-0.698;2023-09-08T05:08:38;101291.72;;;18.72;100.00
46718;BME280;32448;44.960;-0.698;2023-09-08T05:11:06;101290.84;;;18.70;100.00
46718;BME280;32448;44.960;-0.698;2023-09-08T05:13:36;101296.13;;;18.74;100.00
46718;BME280;32448;44.960;-0.698;2023-09-08T05:16:04;101300.47;;;18.80;100.00
46718;BME280;32448;44.960;-0.698;2023-09-08T05:18:45;101302.25;;;18.78;100.00
46718;BME280;32448;44.960;-0.698;2023-09-08T05:21:13;101310.28;;;18.69;100.00
46718;BME280;32448;44.960;-0.698;2023-09-08T05:23:42;101305.06;;;18.58;100.00
46718;BME280;32448;44.960;-0.698;2023-09-08T05:26:13;101302.41;;;18.61;100.00
46718;BME280;32448;44.960;-0.698;2023-09-08T05:28:42;101304.16;;;18.61;100.00
46718;BME280;32448;44.960;-0.698;2023-09-08T05:31:10;101312.09;;;18.56;100.00
46718;BME280;32448;44.960;-0.698;2023-09-08T05:33:39;101310.41;;;18.47;100.00
46718;BME280;32448;44.960;-0.698;2023-09-08T05:36:07;101319.22;;;18.46;100.00
46718;BME280;32448;44.960;-0.698;2023-09-08T05:38:38;101317.50;;;18.42;100.00
46718;BME280;32448;44.960;-0.698;2023-09-08T05:41:18;101318.34;;;18.47;100.00
46718;BME280;32448;44.960;-0.698;2023-09-08T05:43:51;101320.13;;;18.45;100.00
46718;BME280;32448;44.960;-0.698;2023-09-08T05:46:19;101326.28;;;18.50;100.00
46718;BME280;32448;44.960;-0.698;2023-09-08T05:48:47;101328.06;;;18.47;100.00
46718;BME280;32448;44.960;-0.698;2023-09-08T05:51:15;101332.50;;;18.40;100.00
46718;BME280;32448;44.960;-0.698;2023-09-08T05:53:44;101333.38;;;18.44;100.00
46718;BME280;32448;44.960;-0.698;2023-09-08T05:56:13;101336.94;;;18.38;100.00
46718;BME280;32448;44.960;-0.698;2023-09-08T05:58:42;101329.88;;;18.40;100.00
46718;BME280;32448;44.960;-0.698;2023-09-08T06:01:11;101331.66;;;18.35;100.00
46718;BME280;32448;44.960;-0.698;2023-09-08T06:03:40;101345.75;;;18.42;100.00
46718;BME280;32448;44.960;-0.698;2023-09-08T06:06:12;101343.09;;;18.40;100.00
46718;BME280;32448;44.960;-0.698;2023-09-08T06:08:47;101343.06;;;18.45;100.00
46718;BME280;32448;44.960;-0.698;2023-09-08T06:11:22;101343.06;;;18.46;100.00
46718;BME280;32448;44.960;-0.698;2023-09-08T06:13:51;101352.75;;;18.49;100.00
46718;BME280;32448;44.960;-0.698;2023-09-08T06:16:25;101347.47;;;18.49;100.00
46718;BME280;32448;44.960;-0.698;2023-09-08T06:18:53;101355.41;;;18.49;100.00
46718;BME280;32448;44.960;-0.698;2023-09-08T06:21:22;101350.09;;;18.49;100.00
46718;BME280;32448;44.960;-0.698;2023-09-08T06:23:50;101357.16;;;18.51;100.00
46718;BME280;32448;44.960;-0.698;2023-09-08T06:26:23;101350.09;;;18.52;100.00
46718;BME280;32448;44.960;-0.698;2023-09-08T06:28:53;101349.19;;;18.58;100.00
46718;BME280;32448;44.960;-0.698;2023-09-08T06:31:23;101353.59;;;18.63;100.00
46718;BME280;32448;44.960;-0.698;2023-09-08T06:33:54;101360.59;;;18.69;100.00
46718;BME280;32448;44.960;-0.698;2023-09-08T06:36:24;101370.28;;;18.76;100.00
46718;BME280;32448;44.960;-0.698;2023-09-08T06:38:54;101373.75;;;18.78;100.00
46718;BME280;32448;44.960;-0.698;2023-09-08T06:41:22;101373.72;;;18.84;100.00
46718;BME280;32448;44.960;-0.698;2023-09-08T06:43:52;101379.00;;;18.88;100.00
46718;BME280;32448;44.960;-0.698;2023-09-08T06:46:27;101382.47;;;18.95;100.00
46718;BME280;32448;44.960;-0.698;2023-09-08T06:48:54;101376.22;;;19.04;100.00
46718;BME280;32448;44.960;-0.698;2023-09-08T06:51:23;101377.06;;;19.10;100.00
46718;BME280;32448;44.960;-0.698;2023-09-08T06:53:55;101375.22;;;19.20;100.00
46718;BME280;32448;44.960;-0.698;2023-09-08T06:56:35;101369.81;;;19.32;100.00
46718;BME280;32448;44.960;-0.698;2023-09-08T06:59:08;101374.06;;;19.47;100.00
46718;BME280;32448;44.960;-0.698;2023-09-08T07:01:37;101375.72;;;19.61;100.00
46718;BME280;32448;44.960;-0.698;2023-09-08T07:04:09;101374.69;;;19.75;100.00
46718;BME280;32448;44.960;-0.698;2023-09-08T07:06:39;101372.78;;;19.87;100.00
46718;BME280;32448;44.960;-0.698;2023-09-08T07:09:12;101364.66;;;19.99;100.00
46718;BME280;32448;44.960;-0.698;2023-09-08T07:11:41;101371.66;;;20.08;100.00
46718;BME280;32448;44.960;-0.698;2023-09-08T07:14:12;101373.25;;;20.21;100.00
46718;BME280;32448;44.960;-0.698;2023-09-08T07:16:40;101366.84;;;20.34;100.00
46718;BME280;32448;44.960;-0.698;2023-09-08T07:19:10;101365.84;;;20.45;100.00
46718;BME280;32448;44.960;-0.698;2023-09-08T07:21:39;101365.75;;;20.54;100.00
46718;BME280;32448;44.960;-0.698;2023-09-08T07:24:07;101360.22;;;20.67;100.00
46718;BME280;32448;44.960;-0.698;2023-09-08T07:26:35;101357.19;;;20.90;100.00
46718;BME280;32448;44.960;-0.698;2023-09-08T07:29:03;101355.16;;;21.07;100.00
46718;BME280;32448;44.960;-0.698;2023-09-08T07:31:33;101365.63;;;21.20;100.00
46718;BME280;32448;44.960;-0.698;2023-09-08T07:34:01;101356.50;;;21.33;100.00
46718;BME280;32448;44.960;-0.698;2023-09-08T07:36:30;101358.84;;;21.51;100.00
46718;BME280;32448;44.960;-0.698;2023-09-08T07:38:59;101350.38;;;21.75;100.00
46718;BME280;32448;44.960;-0.698;2023-09-08T07:41:28;101354.44;;;21.95;100.00
46718;BME280;32448;44.960;-0.698;2023-09-08T07:43:59;101345.41;;;22.02;100.00
46718;BME280;32448;44.960;-0.698;2023-09-08T07:46:29;101344.25;;;22.15;100.00
46718;BME280;32448;44.960;-0.698;2023-09-08T07:49:00;101346.53;;;22.32;100.00
46718;BME280;32448;44.960;-0.698;2023-09-08T07:51:29;101334.59;;;22.49;100.00
46718;BME280;32448;44.960;-0.698;2023-09-08T07:53:58;101340.03;;;22.83;100.00
46718;BME280;32448;44.960;-0.698;2023-09-08T07:56:26;101336.19;;;22.95;100.00
46718;BME280;32448;44.960;-0.698;2023-09-08T07:58:55;101331.19;;;23.17;100.00
46718;BME280;32448;44.960;-0.698;2023-09-08T08:01:23;101326.44;;;23.28;100.00
46718;BME280;32448;44.960;-0.698;2023-09-08T08:03:52;101329.59;;;23.42;100.00
46718;BME280;32448;44.960;-0.698;2023-09-08T08:06:23;101327.25;;;23.64;100.00
46718;BME280;32448;44.960;-0.698;2023-09-08T08:08:51;101336.13;;;23.65;100.00
46718;BME280;32448;44.960;-0.698;2023-09-08T08:11:20;101338.88;;;23.63;100.00
46718;BME280;32448;44.960;-0.698;2023-09-08T08:13:50;101331.97;;;23.54;100.00
46718;BME280;32448;44.960;-0.698;2023-09-08T08:16:20;101341.00;;;23.50;100.00
46718;BME280;32448;44.960;-0.698;2023-09-08T08:18:49;101344.50;;;23.52;100.00
46718;BME280;32448;44.960;-0.698;2023-09-08T08:21:17;101340.78;;;23.58;100.00
46718;BME280;32448;44.960;-0.698;2023-09-08T08:23:47;101338.06;;;23.59;100.00
46718;BME280;32448;44.960;-0.698;2023-09-08T08:26:15;101336.44;;;23.54;100.00
46718;BME280;32448;44.960;-0.698;2023-09-08T08:28:43;101337.44;;;23.50;100.00
46718;BME280;32448;44.960;-0.698;2023-09-08T08:31:12;101328.50;;;23.52;100.00
46718;BME280;32448;44.960;-0.698;2023-09-08T08:33:41;101341.75;;;23.54;100.00
46718;BME280;32448;44.960;-0.698;2023-09-08T08:36:10;101345.34;;;23.53;100.00
46718;BME280;32448;44.960;-0.698;2023-09-08T08:38:39;101352.44;;;23.54;100.00
46718;BME280;32448;44.960;-0.698;2023-09-08T08:41:07;101345.47;;;23.48;100.00
46718;BME280;32448;44.960;-0.698;2023-09-08T08:43:35;101340.13;;;23.50;100.00
46718;BME280;32448;44.960;-0.698;2023-09-08T08:46:03;101334.47;;;23.61;100.00
46718;BME280;32448;44.960;-0.698;2023-09-08T08:48:35;101340.31;;;23.75;100.00
46718;BME280;32448;44.960;-0.698;2023-09-08T08:51:06;101337.19;;;23.90;100.00
46718;BME280;32448;44.960;-0.698;2023-09-08T08:53:36;101334.97;;;24.06;100.00
46718;BME280;32448;44.960;-0.698;2023-09-08T08:56:07;101335.81;;;24.37;100.00
46718;BME280;32448;44.960;-0.698;2023-09-08T08:58:39;101328.16;;;24.53;100.00
46718;BME280;32448;44.960;-0.698;2023-09-08T09:01:07;101331.75;;;24.80;100.00
46718;BME280;32448;44.960;-0.698;2023-09-08T09:03:35;101319.66;;;24.96;100.00
46718;BME280;32448;44.960;-0.698;2023-09-08T09:06:07;101330.66;;;25.13;100.00
46718;BME280;32448;44.960;-0.698;2023-09-08T09:08:36;101322.31;;;25.22;100.00
46718;BME280;32448;44.960;-0.698;2023-09-08T09:11:04;101323.69;;;25.34;100.00
46718;BME280;32448;44.960;-0.698;2023-09-08T09:13:32;101321.09;;;25.31;100.00
46718;BME280;32448;44.960;-0.698;2023-09-08T09:16:00;101322.59;;;25.39;100.00
46718;BME280;32448;44.960;-0.698;2023-09-08T09:18:31;101323.00;;;25.52;100.00
46718;BME280;32448;44.960;-0.698;2023-09-08T09:21:01;101315.56;;;25.62;100.00
46718;BME280;32448;44.960;-0.698;2023-09-08T09:23:32;101313.78;;;25.62;100.00
46718;BME280;32448;44.960;-0.698;2023-09-08T09:26:01;101320.78;;;25.65;100.00
46718;BME280;32448;44.960;-0.698;2023-09-08T09:28:31;101322.16;;;25.77;100.00
46718;BME280;32448;44.960;-0.698;2023-09-08T09:31:02;101320.09;;;25.85;100.00
46718;BME280;32448;44.960;-0.698;2023-09-08T09:33:34;101324.78;;;26.01;100.00
46718;BME280;32448;44.960;-0.698;2023-09-08T09:36:02;101329.16;;;26.04;100.00
46718;BME280;32448;44.960;-0.698;2023-09-08T09:38:31;101318.38;;;26.05;100.00
46718;BME280;32448;44.960;-0.698;2023-09-08T09:41:02;101319.38;;;26.03;100.00
46718;BME280;32448;44.960;-0.698;2023-09-08T09:43:30;101327.09;;;26.10;100.00
46718;BME280;32448;44.960;-0.698;2023-09-08T09:45:58;101322.97;;;26.25;100.00
46718;BME280;32448;44.960;-0.698;2023-09-08T09:48:27;101324.69;;;26.28;100.00
46718;BME280;32448;44.960;-0.698;2023-09-08T09:50:55;101318.75;;;26.41;100.00
46718;BME280;32448;44.960;-0.698;2023-09-08T09:53:23;101318.19;;;26.33;100.00
46718;BME280;32448;44.960;-0.698;2023-09-08T09:55:52;101317.72;;;26.45;100.00
46718;BME280;32448;44.960;-0.698;2023-09-08T09:58:22;101314.66;;;26.55;100.00
46718;BME280;32448;44.960;-0.698;2023-09-08T10:00:58;101317.09;;;26.61;100.00
46718;BME280;32448;44.960;-0.698;2023-09-08T10:03:28;101314.47;;;26.81;100.00
46718;BME280;32448;44.960;-0.698;2023-09-08T10:05:59;101304.06;;;26.95;100.00
46718;BME280;32448;44.960;-0.698;2023-09-08T10:08:27;101304.69;;;27.22;100.00
46718;BME280;32448;44.960;-0.698;2023-09-08T10:10:56;101303.94;;;27.39;100.00
46718;BME280;32448;44.960;-0.698;2023-09-08T10:13:28;101306.16;;;27.49;100.00
46718;BME280;32448;44.960;-0.698;2023-09-08T10:15:59;101307.97;;;27.69;100.00
46718;BME280;32448;44.960;-0.698;2023-09-08T10:18:35;101308.69;;;27.73;100.00
46718;BME280;32448;44.960;-0.698;2023-09-08T10:21:06;101311.03;;;27.80;100.00
46718;BME280;32448;44.960;-0.698;2023-09-08T10:23:44;101317.09;;;28.04;100.00
46718;BME280;32448;44.960;-0.698;2023-09-08T10:26:20;101311.56;;;28.07;100.00
46718;BME280;32448;44.960;-0.698;2023-09-08T10:28:50;101304.81;;;28.17;100.00
46718;BME280;32448;44.960;-0.698;2023-09-08T10:31:18;101308.38;;;28.18;100.00
46718;BME280;32448;44.960;-0.698;2023-09-08T10:33:47;101300.41;;;28.35;100.00
46718;BME280;32448;44.960;-0.698;2023-09-08T10:36:15;101303.50;;;28.45;100.00
46718;BME280;32448;44.960;-0.698;2023-09-08T10:38:43;101297.47;;;28.58;100.00
46718;BME280;32448;44.960;-0.698;2023-09-08T10:43:55;101290.00;;;28.82;100.00
46718;BME280;32448;44.960;-0.698;2023-09-08T10:46:28;101286.94;;;28.90;100.00
46718;BME280;32448;44.960;-0.698;2023-09-08T10:49:04;101292.06;;;29.12;100.00
46718;BME280;32448;44.960;-0.698;2023-09-08T10:51:35;101295.38;;;29.17;100.00
46718;BME280;32448;44.960;-0.698;2023-09-08T10:54:03;101288.25;;;29.33;100.00
46718;BME280;32448;44.960;-0.698;2023-09-08T10:56:48;101290.88;;;29.34;100.00
46718;BME280;32448;44.960;-0.698;2023-09-08T10:59:17;101285.25;;;29.39;96.10
46718;BME280;32448;44.960;-0.698;2023-09-08T11:01:46;101272.88;;;29.35;100.00
46718;BME280;32448;44.960;-0.698;2023-09-08T11:04:18;101269.97;;;29.40;100.00
46718;BME280;32448;44.960;-0.698;2023-09-08T11:06:49;101266.31;;;29.58;100.00
46718;BME280;32448;44.960;-0.698;2023-09-08T11:09:21;101251.97;;;29.73;100.00
46718;BME280;32448;44.960;-0.698;2023-09-08T11:11:50;101260.81;;;29.92;95.89
46718;BME280;32448;44.960;-0.698;2023-09-08T11:14:18;101264.66;;;30.04;88.33
46718;BME280;32448;44.960;-0.698;2023-09-08T11:16:46;101259.09;;;30.07;89.90
46718;BME280;32448;44.960;-0.698;2023-09-08T11:19:17;101255.88;;;30.32;80.35
46718;BME280;32448;44.960;-0.698;2023-09-08T11:21:46;101253.41;;;30.27;77.82
46718;BME280;32448;44.960;-0.698;2023-09-08T11:24:14;101250.84;;;30.26;88.65
46718;BME280;32448;44.960;-0.698;2023-09-08T11:26:46;101253.25;;;30.30;81.00
46718;BME280;32448;44.960;-0.698;2023-09-08T11:29:17;101248.88;;;30.44;88.02
46718;BME280;32448;44.960;-0.698;2023-09-08T11:31:45;101252.09;;;30.50;86.27
46718;BME280;32448;44.960;-0.698;2023-09-08T11:34:18;101254.78;;;30.50;83.39
46718;BME280;32448;44.960;-0.698;2023-09-08T11:36:50;101247.25;;;30.57;73.94
46718;BME280;32448;44.960;-0.698;2023-09-08T11:39:22;101248.78;;;30.61;78.71
46718;BME280;32448;44.960;-0.698;2023-09-08T11:41:52;101244.16;;;30.79;72.53
46718;BME280;32448;44.960;-0.698;2023-09-08T11:44:21;101243.53;;;30.73;75.80
46718;BME280;32448;44.960;-0.698;2023-09-08T11:46:49;101240.28;;;30.83;67.12
46718;BME280;32448;44.960;-0.698;2023-09-08T11:49:23;101233.66;;;30.88;76.32
46718;BME280;32448;44.960;-0.698;2023-09-08T11:51:51;101240.50;;;30.94;68.39
46718;BME280;32448;44.960;-0.698;2023-09-08T11:54:22;101240.72;;;31.05;72.60
46718;BME280;32448;44.960;-0.698;2023-09-08T11:56:51;101240.41;;;31.11;73.25
46718;BME280;32448;44.960;-0.698;2023-09-08T11:59:25;101231.56;;;31.07;72.55
46718;BME280;32448;44.960;-0.698;2023-09-08T12:01:55;101228.25;;;31.18;75.95
46718;BME280;32448;44.960;-0.698;2023-09-08T12:04:24;101229.41;;;31.28;67.31
46718;BME280;32448;44.960;-0.698;2023-09-08T12:06:52;101239.06;;;31.32;73.07
46718;BME280;32448;44.960;-0.698;2023-09-08T12:09:21;101231.91;;;31.17;62.75
46718;BME280;32448;44.960;-0.698;2023-09-08T12:11:51;101225.53;;;31.18;67.93
46718;BME280;32448;44.960;-0.698;2023-09-08T12:14:20;101229.41;;;31.28;66.97
46718;BME280;32448;44.960;-0.698;2023-09-08T12:16:48;101231.66;;;31.36;64.56
46718;BME280;32448;44.960;-0.698;2023-09-08T12:19:31;101227.50;;;31.30;59.85
46718;BME280;32448;44.960;-0.698;2023-09-08T12:21:59;101223.34;;;31.25;58.59
46718;BME280;32448;44.960;-0.698;2023-09-08T12:24:49;101218.50;;;31.30;53.02
46718;BME280;32448;44.960;-0.698;2023-09-08T12:27:18;101216.41;;;31.35;53.27
46718;BME280;32448;44.960;-0.698;2023-09-08T12:29:56;101210.88;;;31.51;54.55
46718;BME280;32448;44.960;-0.698;2023-09-08T12:32:28;101212.47;;;31.69;51.55
46718;BME280;32448;44.960;-0.698;2023-09-08T12:35:01;101214.56;;;31.78;51.82
46718;BME280;32448;44.960;-0.698;2023-09-08T12:37:32;101215.53;;;31.91;56.61
46718;BME280;32448;44.960;-0.698;2023-09-08T12:40:02;101208.16;;;31.93;57.53
46718;BME280;32448;44.960;-0.698;2023-09-08T12:42:30;101207.44;;;32.04;52.87
46718;BME280;32448;44.960;-0.698;2023-09-08T12:45:06;101202.09;;;32.16;49.41
46718;BME280;32448;44.960;-0.698;2023-09-08T12:47:33;101204.44;;;32.08;50.96
46718;BME280;32448;44.960;-0.698;2023-09-08T12:50:04;101197.41;;;32.06;51.65